createdAt,value
2023-04-02T00:00:10.642Z,4.22
2023-04-02T00:02:48.391Z,4.22
2023-04-02T00:05:20.600Z,4.18
2023-04-02T00:07:49.059Z,4.17
2023-04-02T00:10:38.300Z,4.11
2023-04-02T00:13:11.139Z,4.15
2023-04-02T00:15:47.612Z,4.12
2023-04-02T00:18:16.456Z,4.15
2023-04-02T00:20:45.851Z,4.18
2023-04-02T00:23:13.184Z,4.19
2023-04-02T00:25:43.197Z,4.17
2023-04-02T00:28:20.890Z,4.17
2023-04-02T00:30:51.875Z,4.18
2023-04-02T00:33:26.866Z,4.19
2023-04-02T00:35:54.089Z,4.18
2023-04-02T00:38:28.535Z,4.19
2023-04-02T00:40:56.622Z,4.14
2023-04-02T00:43:28.257Z,4.12
2023-04-02T00:45:56.507Z,4.11
2023-04-02T00:48:32.111Z,4.07
2023-04-02T00:51:00.414Z,4.01
2023-04-02T00:53:28.799Z,3.91
2023-04-02T00:55:56.500Z,3.83
2023-04-02T00:58:33.550Z,3.77
2023-04-02T01:01:00.342Z,3.83
2023-04-02T01:03:38.101Z,3.86
2023-04-02T01:06:10.812Z,3.88
2023-04-02T01:08:37.673Z,3.90
2023-04-02T01:11:10.206Z,3.90
2023-04-02T01:13:41.493Z,3.94
2023-04-02T01:16:13.874Z,4.02
2023-04-02T01:18:58.649Z,4.02
2023-04-02T01:21:46.652Z,4.02
2023-04-02T01:24:13.798Z,3.98
2023-04-02T01:27:01.110Z,3.97
2023-04-02T01:29:31.634Z,3.93
2023-04-02T01:32:03.580Z,3.91
2023-04-02T01:34:33.758Z,3.93
2023-04-02T01:37:38.024Z,4.07
2023-04-02T01:40:17.819Z,4.24
2023-04-02T01:42:56.883Z,4.34
2023-04-02T01:45:24.785Z,4.32
2023-04-02T01:47:51.592Z,4.36
2023-04-02T01:50:24.363Z,4.35
2023-04-02T01:52:52.761Z,4.32
2023-04-02T01:55:39.130Z,4.39
2023-04-02T01:58:05.943Z,4.34
2023-04-02T02:00:32.759Z,4.34
2023-04-02T02:03:00.063Z,4.34
2023-04-02T02:05:26.731Z,4.28
2023-04-02T02:07:53.414Z,4.21
2023-04-02T02:10:33.815Z,4.14
2023-04-02T02:13:00.579Z,4.08
2023-04-02T02:15:27.308Z,3.98
2023-04-02T02:17:57.545Z,3.97
2023-04-02T02:20:24.325Z,3.93
2023-04-02T02:22:50.998Z,3.90
2023-04-02T02:25:20.043Z,3.87
2023-04-02T02:27:49.813Z,3.80
2023-04-02T02:30:31.562Z,3.71
2023-04-02T02:33:18.723Z,3.62
2023-04-02T02:36:00.836Z,3.67
2023-04-02T02:38:30.656Z,3.60
2023-04-02T02:41:00.854Z,3.63
2023-04-02T02:43:27.576Z,3.60
2023-04-02T02:45:54.302Z,3.66
2023-04-02T02:48:21.903Z,3.70
2023-04-02T02:50:48.546Z,3.64
2023-04-02T02:53:23.487Z,3.63
2023-04-02T02:55:52.382Z,3.56
2023-04-02T02:58:23.504Z,3.57
2023-04-02T03:00:50.204Z,3.62
2023-04-02T03:03:19.327Z,3.67
2023-04-02T03:05:53.076Z,3.74
2023-04-02T03:08:28.930Z,3.81
2023-04-02T03:11:06.439Z,3.83
2023-04-02T03:13:35.553Z,3.86
2023-04-02T03:16:18.558Z,3.86
2023-04-02T03:18:52.112Z,3.94
2023-04-02T03:21:21.541Z,3.98
2023-04-02T03:24:08.669Z,3.99
2023-04-02T03:26:44.619Z,3.99
2023-04-02T03:29:16.492Z,4.07
2023-04-02T03:31:54.255Z,4.17
2023-04-02T03:34:23.794Z,4.18
2023-04-02T03:36:56.842Z,4.21
2023-04-02T03:40:02.318Z,4.31
2023-04-02T03:42:30.833Z,4.29
2023-04-02T03:45:03.509Z,4.29
2023-04-02T03:48:04.514Z,4.38
2023-04-02T03:50:56.695Z,4.42
2023-04-02T03:53:24.391Z,4.41
2023-04-02T03:55:51.273Z,4.31
2023-04-02T03:58:47.793Z,4.19
2023-04-02T04:01:24.609Z,4.15
2023-04-02T04:03:53.324Z,4.12
2023-04-02T04:06:29.898Z,4.07
2023-04-02T04:09:00.203Z,4.07
2023-04-02T04:11:34.958Z,4.09
2023-04-02T04:14:07.901Z,4.09
2023-04-02T04:16:44.301Z,4.14
2023-04-02T04:19:13.083Z,4.21
2023-04-02T04:21:39.785Z,4.21
2023-04-02T04:24:22.930Z,4.22
2023-04-02T04:27:04.189Z,4.14
2023-04-02T04:30:10.484Z,4.09
2023-04-02T04:32:39.379Z,3.99
2023-04-02T04:35:15.509Z,3.99
2023-04-02T04:37:43.292Z,4.02
2023-04-02T04:40:24.009Z,4.08
2023-04-02T04:42:52.046Z,4.17
2023-04-02T04:45:45.049Z,4.22
2023-04-02T04:48:42.749Z,4.32
2023-04-02T04:51:15.503Z,4.34
2023-04-02T04:53:52.732Z,4.28
2023-04-02T04:56:21.628Z,4.28
2023-04-02T04:58:51.349Z,4.32
2023-04-02T05:01:36.700Z,4.39
2023-04-02T05:04:29.402Z,4.50
2023-04-02T05:07:01.064Z,4.57
2023-04-02T05:09:40.103Z,4.57
2023-04-02T05:12:36.957Z,4.66
2023-04-02T05:15:06.912Z,4.69
2023-04-02T05:17:42.690Z,4.74
2023-04-02T05:20:23.684Z,4.80
2023-04-02T05:22:59.750Z,4.77
2023-04-02T05:25:30.613Z,4.79
2023-04-02T05:28:07.863Z,4.87
2023-04-02T05:30:46.917Z,5.00
2023-04-02T05:33:27.609Z,5.15
2023-04-02T05:35:59.924Z,5.27
2023-04-02T05:38:28.441Z,5.38
2023-04-02T05:41:02.384Z,5.53
2023-04-02T05:43:30.829Z,5.60
2023-04-02T05:45:58.496Z,5.69
2023-04-02T05:48:32.431Z,5.77
2023-04-02T05:50:59.333Z,5.52
2023-04-02T05:53:32.337Z,5.41
2023-04-02T05:56:11.495Z,5.45
2023-04-02T05:58:45.349Z,5.63
2023-04-02T06:01:15.549Z,5.80
2023-04-02T06:04:09.205Z,6.01
2023-04-02T06:06:43.436Z,6.17
2023-04-02T06:09:20.151Z,6.37
2023-04-02T06:11:49.465Z,6.50
2023-04-02T06:14:16.341Z,6.71
2023-04-02T06:16:44.568Z,6.87
2023-04-02T06:19:30.247Z,6.99
2023-04-02T06:22:07.762Z,6.96
2023-04-02T06:24:34.440Z,7.07
2023-04-02T06:27:02.982Z,7.20
2023-04-02T06:29:40.900Z,7.25
2023-04-02T06:32:08.631Z,7.51
2023-04-02T06:34:37.149Z,7.79
2023-04-02T06:37:23.670Z,8.04
2023-04-02T06:39:50.503Z,8.20
2023-04-02T06:42:19.791Z,8.12
2023-04-02T06:44:47.536Z,8.26
2023-04-02T06:47:44.376Z,8.51
2023-04-02T06:50:22.389Z,8.72
2023-04-02T06:52:51.096Z,8.72
2023-04-02T06:55:20.811Z,8.61
2023-04-02T06:57:47.892Z,8.61
2023-04-02T07:00:37.465Z,8.65
2023-04-02T07:03:07.754Z,8.69
2023-04-02T07:05:34.835Z,8.58
2023-04-02T07:08:01.641Z,8.44
2023-04-02T07:10:28.429Z,8.42
2023-04-02T07:12:55.353Z,8.33
2023-04-02T07:15:24.052Z,8.30
2023-04-02T07:17:52.199Z,8.30
2023-04-02T07:20:37.652Z,8.41
2023-04-02T07:23:04.387Z,8.57
2023-04-02T07:25:31.056Z,8.71
2023-04-02T07:27:57.797Z,8.67
2023-04-02T07:30:24.606Z,8.71
2023-04-02T07:32:51.350Z,8.75
2023-04-02T07:35:18.239Z,8.88
2023-04-02T07:37:44.963Z,9.05
2023-04-02T07:40:16.863Z,9.13
2023-04-02T07:42:43.505Z,9.15
2023-04-02T07:45:10.757Z,9.29
2023-04-02T07:47:37.435Z,9.26
2023-04-02T07:50:04.381Z,9.40
2023-04-02T07:52:31.446Z,9.65
2023-04-02T07:54:58.127Z,9.89
2023-04-02T07:57:24.865Z,10.29
2023-04-02T07:59:51.629Z,10.60
2023-04-02T08:02:20.236Z,10.88
2023-04-02T08:04:51.245Z,11.25
2023-04-02T08:07:19.171Z,11.60
2023-04-02T08:09:46.080Z,11.87
2023-04-02T08:12:13.495Z,11.93
2023-04-02T08:14:40.197Z,11.93
2023-04-02T08:17:06.855Z,11.88
2023-04-02T08:19:44.368Z,11.97
2023-04-02T08:22:18.635Z,12.29
2023-04-02T08:24:45.452Z,12.60
2023-04-02T08:27:14.546Z,12.79
2023-04-02T08:29:41.193Z,12.86
2023-04-02T08:32:09.421Z,12.94
2023-04-02T08:34:36.253Z,13.28
2023-04-02T08:37:02.949Z,13.54
2023-04-02T08:39:33.219Z,13.85
2023-04-02T08:42:21.362Z,13.96
2023-04-02T08:45:24.297Z,14.10
2023-04-02T08:48:01.309Z,14.21
2023-04-02T08:50:33.634Z,14.24
2023-04-02T08:53:01.588Z,14.37
2023-04-02T08:55:55.813Z,14.63
2023-04-02T08:58:39.547Z,14.85
2023-04-02T09:01:06.301Z,15.19
2023-04-02T09:03:41.531Z,15.23
2023-04-02T09:06:10.136Z,15.51
2023-04-02T09:08:37.047Z,15.81
2023-04-02T09:11:08.305Z,15.87
2023-04-02T09:13:37.779Z,16.12
2023-04-02T09:16:11.867Z,16.12
2023-04-02T09:18:38.854Z,15.95
2023-04-02T09:21:35.933Z,15.85
2023-04-02T09:24:03.977Z,15.97
2023-04-02T09:26:32.928Z,16.32
2023-04-02T09:29:13.418Z,16.88
2023-04-02T09:32:02.237Z,17.14
2023-04-02T09:34:32.662Z,17.08
2023-04-02T09:37:14.057Z,16.80
2023-04-02T09:39:41.174Z,16.45
2023-04-02T09:42:08.628Z,15.99
2023-04-02T09:44:35.400Z,16.01
2023-04-02T09:47:06.884Z,16.18
2023-04-02T09:49:35.114Z,16.22
2023-04-02T09:52:26.678Z,16.88
2023-04-02T09:55:27.220Z,17.86
2023-04-02T09:58:08.322Z,18.39
2023-04-02T10:00:35.514Z,18.53
2023-04-02T10:03:28.411Z,18.22
2023-04-02T10:06:14.920Z,17.91
2023-04-02T10:08:42.526Z,18.01
2023-04-02T10:11:12.669Z,18.11
2023-04-02T10:13:56.410Z,18.14
2023-04-02T10:16:33.297Z,18.35
2023-04-02T10:19:16.033Z,18.62
2023-04-02T10:21:42.684Z,18.97
2023-04-02T10:24:18.303Z,18.80
2023-04-02T10:27:03.188Z,18.97
2023-04-02T10:29:55.996Z,19.21
2023-04-02T10:32:39.773Z,19.10
2023-04-02T10:35:40.572Z,18.90
2023-04-02T10:38:38.939Z,18.44
2023-04-02T10:41:15.638Z,18.37
2023-04-02T10:43:42.307Z,17.86
2023-04-02T10:46:34.087Z,17.69
2023-04-02T10:49:03.828Z,17.07
2023-04-02T10:51:38.922Z,16.85
2023-04-02T10:54:29.886Z,16.81
2023-04-02T10:57:01.138Z,16.84
2023-04-02T10:59:30.154Z,16.87
2023-04-02T11:01:57.651Z,16.84
2023-04-02T11:04:38.116Z,16.85
2023-04-02T11:07:14.599Z,16.91
2023-04-02T11:09:42.875Z,16.64
2023-04-02T11:12:16.902Z,16.40
2023-04-02T11:14:43.724Z,16.13
2023-04-02T11:17:19.217Z,15.82
2023-04-02T11:19:46.188Z,15.47
2023-04-02T11:22:22.501Z,15.22
2023-04-02T11:24:53.479Z,15.09
2023-04-02T11:27:35.668Z,14.91
2023-04-02T11:30:06.952Z,14.83
2023-04-02T11:32:47.460Z,14.82
2023-04-02T11:35:32.541Z,14.64
2023-04-02T11:38:22.627Z,14.58
2023-04-02T11:40:49.527Z,14.57
2023-04-02T11:43:34.609Z,14.45
2023-04-02T11:46:02.396Z,14.38
2023-04-02T11:48:33.967Z,14.28
2023-04-02T11:51:04.734Z,14.20
2023-04-02T11:53:33.408Z,14.05
2023-04-02T11:56:19.555Z,13.95
2023-04-02T11:58:49.725Z,14.14
2023-04-02T12:01:43.919Z,14.65
2023-04-02T12:04:31.748Z,15.16
2023-04-02T12:07:19.476Z,15.81
2023-04-02T12:09:51.288Z,16.20
2023-04-02T12:12:24.089Z,16.46
2023-04-02T12:14:55.534Z,16.52
2023-04-02T12:17:35.531Z,16.71
2023-04-02T12:20:09.569Z,17.07
2023-04-02T12:22:55.760Z,17.49
2023-04-02T12:25:40.208Z,17.28
2023-04-02T12:28:09.928Z,16.80
2023-04-02T12:30:39.707Z,16.67
2023-04-02T12:33:30.575Z,16.50
2023-04-02T12:35:59.066Z,16.47
2023-04-02T12:38:31.004Z,16.68
2023-04-02T12:40:59.614Z,16.70
2023-04-02T12:43:31.123Z,16.60
2023-04-02T12:46:02.129Z,16.87
2023-04-02T12:48:28.871Z,17.07
2023-04-02T12:50:56.243Z,17.12
2023-04-02T12:53:29.756Z,16.63
2023-04-02T12:55:56.811Z,16.19
2023-04-02T12:58:27.601Z,15.75
2023-04-02T13:01:12.872Z,15.46
2023-04-02T13:03:39.602Z,15.26
2023-04-02T13:06:20.721Z,15.06
2023-04-02T13:08:47.453Z,14.96
2023-04-02T13:11:14.080Z,14.93
2023-04-02T13:13:41.176Z,14.71
2023-04-02T13:16:07.973Z,14.92
2023-04-02T13:18:36.786Z,15.09
2023-04-02T13:21:07.066Z,15.04
2023-04-02T13:23:37.589Z,15.24
2023-04-02T13:26:21.989Z,15.29
2023-04-02T13:29:26.798Z,15.09
2023-04-02T13:31:55.799Z,14.86
2023-04-02T13:34:22.765Z,14.76
2023-04-02T13:36:49.562Z,14.71
2023-04-02T13:39:16.301Z,14.83
2023-04-02T13:41:44.516Z,14.86
2023-04-02T13:44:37.662Z,14.85
2023-04-02T13:47:04.456Z,14.79
2023-04-02T13:49:31.676Z,14.68
2023-04-02T13:52:03.690Z,14.38
2023-04-02T13:54:43.105Z,14.26
2023-04-02T13:57:09.832Z,14.37
2023-04-02T13:59:36.497Z,14.34
2023-04-02T14:02:13.826Z,14.33
2023-04-02T14:04:48.688Z,14.28
2023-04-02T14:07:35.804Z,14.34
2023-04-02T14:10:14.818Z,14.44
2023-04-02T14:12:44.596Z,14.38
2023-04-02T14:15:19.923Z,14.37
2023-04-02T14:18:13.551Z,14.68
2023-04-02T14:20:55.518Z,14.79
2023-04-02T14:23:35.196Z,14.75
2023-04-02T14:26:24.440Z,14.54
2023-04-02T14:29:05.579Z,14.45
2023-04-02T14:31:37.851Z,14.33
2023-04-02T14:34:22.095Z,14.14
2023-04-02T14:36:51.905Z,14.02
2023-04-02T14:39:40.506Z,13.93
2023-04-02T14:42:34.645Z,13.90
2023-04-02T14:45:07.707Z,13.76
2023-04-02T14:47:41.452Z,13.66
2023-04-02T14:50:33.080Z,13.99
2023-04-02T14:53:02.382Z,14.07
2023-04-02T14:55:38.140Z,14.44
2023-04-02T14:58:08.088Z,14.60
2023-04-02T15:00:40.461Z,14.63
2023-04-02T15:03:12.539Z,14.55
2023-04-02T15:05:48.959Z,14.27
2023-04-02T15:08:30.541Z,14.30
2023-04-02T15:11:04.962Z,14.27
2023-04-02T15:13:50.160Z,14.21
2023-04-02T15:16:22.754Z,14.16
2023-04-02T15:18:53.229Z,14.05
2023-04-02T15:21:19.876Z,13.93
2023-04-02T15:24:22.009Z,13.93
2023-04-02T15:27:25.588Z,13.89
2023-04-02T15:30:04.807Z,13.68
2023-04-02T15:32:34.215Z,13.68
2023-04-02T15:35:13.008Z,13.70
2023-04-02T15:37:46.467Z,13.69
2023-04-02T15:40:50.592Z,13.59
2023-04-02T15:43:37.356Z,13.45
2023-04-02T15:46:06.888Z,13.44
2023-04-02T15:48:54.688Z,13.40
2023-04-02T15:51:27.439Z,13.30
2023-04-02T15:54:26.019Z,13.14
2023-04-02T15:57:11.817Z,13.10
2023-04-02T16:00:00.766Z,13.07
2023-04-02T16:02:33.401Z,13.04
2023-04-02T16:05:09.170Z,13.01
2023-04-02T16:08:09.244Z,12.97
2023-04-02T16:10:41.855Z,12.80
2023-04-02T16:13:31.769Z,12.76
2023-04-02T16:16:04.702Z,12.64
2023-04-02T16:18:50.847Z,12.59
2023-04-02T16:21:27.184Z,12.50
2023-04-02T16:23:53.933Z,12.39
2023-04-02T16:26:33.500Z,12.34
2023-04-02T16:29:09.250Z,12.28
2023-04-02T16:31:46.892Z,12.26
2023-04-02T16:34:21.541Z,12.20
2023-04-02T16:36:54.639Z,12.18
2023-04-02T16:39:35.254Z,12.10
2023-04-02T16:42:17.080Z,12.02
2023-04-02T16:44:55.997Z,11.97
2023-04-02T16:47:53.272Z,11.91
2023-04-02T16:50:52.045Z,11.80
2023-04-02T16:53:24.653Z,11.69
2023-04-02T16:56:21.621Z,11.60
2023-04-02T16:59:03.790Z,11.56
2023-04-02T17:01:39.592Z,11.49
2023-04-02T17:04:46.539Z,11.43
2023-04-02T17:07:31.763Z,11.39
2023-04-02T17:10:22.686Z,11.30
2023-04-02T17:12:55.874Z,11.14
2023-04-02T17:15:39.511Z,11.09
2023-04-02T17:18:35.837Z,11.05
2023-04-02T17:21:05.139Z,10.98
2023-04-02T17:23:32.706Z,10.85
2023-04-02T17:26:06.070Z,10.72
2023-04-02T17:28:39.194Z,10.59
2023-04-02T17:31:23.102Z,10.46
2023-04-02T17:33:49.822Z,10.33
2023-04-02T17:36:35.325Z,10.25
2023-04-02T17:39:23.448Z,10.15
2023-04-02T17:42:19.201Z,10.09
2023-04-02T17:45:10.559Z,10.03
2023-04-02T17:48:00.761Z,9.92
2023-04-02T17:50:48.717Z,9.85
2023-04-02T17:53:30.592Z,9.82
2023-04-02T17:56:09.921Z,9.77
2023-04-02T17:58:46.629Z,9.70
2023-04-02T18:01:28.884Z,9.62
2023-04-02T18:03:58.668Z,9.57
2023-04-02T18:06:32.154Z,9.52
2023-04-02T18:09:18.091Z,9.41
2023-04-02T18:12:15.118Z,9.29
2023-04-02T18:15:16.035Z,9.27
2023-04-02T18:17:42.639Z,9.15
2023-04-02T18:20:16.057Z,9.16
2023-04-02T18:23:20.064Z,9.13
2023-04-02T18:25:49.535Z,9.09
2023-04-02T18:28:24.894Z,9.12
2023-04-02T18:30:56.781Z,9.08
2023-04-02T18:33:28.626Z,9.06
2023-04-02T18:35:59.788Z,9.05
2023-04-02T18:38:32.075Z,8.98
2023-04-02T18:41:08.739Z,8.83
2023-04-02T18:44:10.941Z,8.76
2023-04-02T18:46:54.442Z,8.61
2023-04-02T18:49:26.838Z,8.52
2023-04-02T18:51:57.640Z,8.41
2023-04-02T18:54:49.812Z,8.34
2023-04-02T18:57:29.241Z,8.16
2023-04-02T19:00:02.542Z,8.07
2023-04-02T19:02:46.515Z,7.93
2023-04-02T19:05:35.355Z,7.83
2023-04-02T19:08:32.957Z,7.78
2023-04-02T19:11:01.896Z,7.75
2023-04-02T19:13:28.614Z,7.69
2023-04-02T19:16:05.246Z,7.59
2023-04-02T19:18:43.340Z,7.48
2023-04-02T19:21:17.589Z,7.44
2023-04-02T19:24:00.908Z,7.44
2023-04-02T19:26:33.773Z,7.44
2023-04-02T19:29:21.929Z,7.45
2023-04-02T19:32:19.389Z,7.40
2023-04-02T19:34:46.169Z,7.31
2023-04-02T19:37:19.917Z,7.32
2023-04-02T19:39:54.932Z,7.35
2023-04-02T19:42:44.483Z,7.35
2023-04-02T19:45:38.945Z,7.37
2023-04-02T19:48:20.128Z,7.43
2023-04-02T19:50:46.909Z,7.50
2023-04-02T19:53:14.186Z,7.56
2023-04-02T19:55:41.461Z,7.58
2023-04-02T19:58:28.554Z,7.61
2023-04-02T20:00:55.445Z,7.65
2023-04-02T20:03:22.398Z,7.64
2023-04-02T20:05:49.175Z,7.64
2023-04-02T20:08:16.073Z,7.65
2023-04-02T20:10:42.877Z,7.64
2023-04-02T20:13:09.632Z,7.66
2023-04-02T20:15:36.881Z,7.66
2023-04-02T20:18:04.519Z,7.66
2023-04-02T20:20:31.206Z,7.69
2023-04-02T20:22:57.859Z,7.73
2023-04-02T20:25:24.490Z,7.79
2023-04-02T20:27:51.146Z,7.81
2023-04-02T20:30:17.997Z,7.85
2023-04-02T20:32:45.268Z,7.85
2023-04-02T20:35:12.352Z,7.85
2023-04-02T20:37:40.961Z,7.87
2023-04-02T20:40:08.685Z,7.83
2023-04-02T20:42:35.432Z,7.82
2023-04-02T20:45:02.336Z,7.75
2023-04-02T20:47:28.990Z,7.75
2023-04-02T20:49:55.700Z,7.68
2023-04-02T20:52:23.252Z,7.65
2023-04-02T20:54:50.689Z,7.62
2023-04-02T20:57:19.649Z,7.55
2023-04-02T20:59:46.298Z,7.47
2023-04-02T21:02:12.934Z,7.41
2023-04-02T21:04:39.625Z,7.34
2023-04-02T21:07:06.332Z,7.21
2023-04-02T21:09:33.059Z,7.10
2023-04-02T21:11:59.808Z,7.00
2023-04-02T21:14:26.468Z,6.87
2023-04-02T21:16:53.229Z,6.80
2023-04-02T21:19:20.684Z,6.76
2023-04-02T21:21:47.316Z,6.71
2023-04-02T21:24:14.208Z,6.66
2023-04-02T21:26:41.226Z,6.65
2023-04-02T21:29:08.019Z,6.62
2023-04-02T21:31:36.434Z,6.55
2023-04-02T21:34:03.430Z,6.42
2023-04-02T21:36:31.980Z,6.38
2023-04-02T21:39:00.549Z,6.31
2023-04-02T21:41:50.065Z,6.17
2023-04-02T21:44:18.108Z,6.14
2023-04-02T21:46:44.937Z,6.13
2023-04-02T21:49:12.808Z,6.06
2023-04-02T21:51:40.371Z,6.00
2023-04-02T21:54:07.744Z,5.90
2023-04-02T21:56:36.743Z,5.91
2023-04-02T21:59:05.395Z,5.90
2023-04-02T22:01:34.027Z,5.87
2023-04-02T22:04:01.976Z,5.89
2023-04-02T22:06:30.176Z,5.80
2023-04-02T22:08:58.514Z,5.79
2023-04-02T22:11:29.947Z,5.80
2023-04-02T22:13:56.780Z,5.77
2023-04-02T22:16:25.152Z,5.79
2023-04-02T22:18:52.359Z,5.79
2023-04-02T22:21:19.232Z,5.85
2023-04-02T22:23:45.943Z,5.85
2023-04-02T22:26:13.184Z,5.83
2023-04-02T22:28:39.972Z,5.83
2023-04-02T22:31:12.000Z,5.80
2023-04-02T22:33:38.717Z,5.79
2023-04-02T22:36:05.854Z,5.70
2023-04-02T22:38:32.931Z,5.66
2023-04-02T22:41:09.527Z,5.67
2023-04-02T22:43:36.496Z,5.67
2023-04-02T22:46:04.429Z,5.66
2023-04-02T22:48:31.203Z,5.67
2023-04-02T22:50:57.841Z,5.65
2023-04-02T22:53:24.663Z,5.69
2023-04-02T22:55:52.354Z,5.70
2023-04-02T22:58:19.957Z,5.76
2023-04-02T23:00:46.840Z,5.83
2023-04-02T23:03:13.513Z,5.80
2023-04-02T23:05:40.437Z,5.86
2023-04-02T23:08:07.094Z,5.89
2023-04-02T23:10:33.817Z,5.86
2023-04-02T23:13:00.655Z,5.85
2023-04-02T23:15:27.365Z,5.80
2023-04-02T23:17:53.983Z,5.80
2023-04-02T23:20:20.939Z,5.80
2023-04-02T23:22:47.608Z,5.81
2023-04-02T23:25:14.214Z,5.80
2023-04-02T23:27:40.899Z,5.79
2023-04-02T23:30:08.829Z,5.77
2023-04-02T23:32:35.579Z,5.73
2023-04-02T23:35:02.265Z,5.66
2023-04-02T23:37:28.952Z,5.66
2023-04-02T23:39:55.733Z,5.63
2023-04-02T23:42:22.387Z,5.62
2023-04-02T23:44:49.064Z,5.63
2023-04-02T23:47:15.708Z,5.65
2023-04-02T23:49:47.582Z,5.58
2023-04-02T23:52:15.475Z,5.58
2023-04-02T23:54:42.095Z,5.55
2023-04-02T23:57:08.832Z,5.53
2023-04-02T23:59:35.597Z,5.49
